Time;durP1;ratioP1;P1;durP2;ratioP2;P2;SDS_P1;SDS_P2;PMS_P1;PMS_P2;Temp;Humidity;BMP_temperature;BMP_pressure;BME280_temperature;BME280_humidity;BME280_pressure;Samples;Min_cycle;Max_cycle;Signal;HPM_P1;HPM_P2
2022/02/17 00:02:05;;;;;;;0.90;0.25;;;;;;;26.45;30.60;95395.94;5004263;28;20234;-31
2022/02/17 00:04:30;;;;;;;1.13;0.25;;;;;;;26.45;30.57;95402.03;5004452;28;20486;-32
2022/02/17 00:06:56;;;;;;;1.05;0.20;;;;;;;26.45;30.49;95402.03;5002237;28;20029;-28
2022/02/17 00:09:21;;;;;;;0.17;0.10;;;;;;;26.46;30.50;95402.84;5005337;28;20372;-31
2022/02/17 00:11:47;;;;;;;0.93;0.20;;;;;;;26.45;30.57;95401.19;5006670;28;20562;-29
2022/02/17 00:14:12;;;;;;;0.28;0.20;;;;;;;26.44;30.62;95389.03;5002721;28;20029;-37
2022/02/17 00:16:37;;;;;;;0.93;0.40;;;;;;;26.45;30.44;95380.19;5003654;28;20853;-31
2022/02/17 00:19:03;;;;;;;0.70;0.32;;;;;;;26.45;30.41;95374.94;5003923;28;20045;-30
2022/02/17 00:21:29;;;;;;;0.17;0.17;;;;;;;26.46;30.55;95363.47;5000766;28;20026;-31
2022/02/17 00:23:54;;;;;;;3.65;0.30;;;;;;;26.45;30.49;95375.78;5005994;28;20123;-33
2022/02/17 00:26:20;;;;;;;0.65;0.20;;;;;;;26.44;30.41;95368.84;5003250;28;20033;-29
2022/02/17 00:28:45;;;;;;;1.15;0.20;;;;;;;26.44;30.57;95363.59;4985619;28;20052;-31
2022/02/17 00:31:10;;;;;;;1.40;0.30;;;;;;;26.44;30.57;95357.50;5005961;28;20029;-31
2022/02/17 00:33:38;;;;;;;0.30;0.10;;;;;;;26.46;30.54;95350.31;5001987;28;20033;-33
2022/02/17 00:36:05;;;;;;;0.20;0.10;;;;;;;26.45;30.53;95348.66;5002668;28;20428;-30
2022/02/17 00:38:30;;;;;;;0.43;0.13;;;;;;;26.46;30.44;95339.81;5002173;28;20074;-36
2022/02/17 00:40:56;;;;;;;0.47;0.15;;;;;;;26.45;30.51;95332.91;5003325;28;21137;-31
2022/02/17 00:43:21;;;;;;;0.35;0.10;;;;;;;26.45;30.49;95349.50;5005301;28;21963;-31
2022/02/17 00:45:47;;;;;;;0.10;0.10;;;;;;;26.45;30.55;95361.78;5008431;28;20068;-30
2022/02/17 00:48:12;;;;;;;2.15;0.32;;;;;;;26.44;30.47;95363.59;5004971;28;20064;-30
2022/02/17 00:50:38;;;;;;;1.27;0.10;;;;;;;26.44;30.46;95362.75;4984757;28;20029;-30
2022/02/17 00:53:03;;;;;;;0.20;0.13;;;;;;;26.45;30.41;95369.69;5001468;28;20087;-30
2022/02/17 00:55:28;;;;;;;0.65;0.20;;;;;;;26.44;30.35;95373.25;5001658;28;20491;-29
2022/02/17 00:57:54;;;;;;;0.98;0.20;;;;;;;26.44;30.47;95362.75;5009224;28;20029;-31
2022/02/17 01:00:19;;;;;;;0.52;0.20;;;;;;;26.44;30.46;95362.75;5006311;28;20036;-31
2022/02/17 01:02:45;;;;;;;0.57;0.20;;;;;;;26.44;30.50;95352.25;5005228;28;20520;-47
2022/02/17 01:05:10;;;;;;;0.32;0.25;;;;;;;26.44;30.36;95363.59;5006461;28;20487;-32
2022/02/17 01:07:35;;;;;;;0.38;0.20;;;;;;;26.43;30.33;95356.66;5016118;28;20029;-31
2022/02/17 01:10:01;;;;;;;0.10;0.10;;;;;;;26.44;30.35;95347.00;5006221;28;20033;-31
2022/02/17 01:12:26;;;;;;;0.65;0.10;;;;;;;26.42;30.37;95343.63;5007337;28;20049;-32
2022/02/17 01:14:52;;;;;;;0.80;0.20;;;;;;;26.43;30.55;95329.56;5007332;28;20029;-32
2022/02/17 01:17:17;;;;;;;0.22;0.10;;;;;;;26.41;30.44;95321.81;5011322;28;20610;-32
2022/02/17 01:19:42;;;;;;;0.70;0.13;;;;;;;26.42;30.35;95341.00;5013910;28;20021;-36
2022/02/17 01:22:08;;;;;;;0.17;0.10;;;;;;;26.41;30.39;95347.22;5014327;28;20033;-34
2022/02/17 01:24:33;;;;;;;0.47;0.30;;;;;;;26.42;30.48;95348.91;5013893;28;20030;-30
2022/02/17 01:26:59;;;;;;;1.33;0.40;;;;;;;26.43;30.36;95329.56;5013469;28;20025;-34
2022/02/17 01:29:24;;;;;;;0.22;0.15;;;;;;;26.40;30.35;95319.31;5009870;28;20040;-32
2022/02/17 01:31:49;;;;;;;0.10;0.10;;;;;;;26.41;30.41;95320.97;5014208;28;20067;-31
2022/02/17 01:34:15;;;;;;;0.52;0.17;;;;;;;26.41;30.47;95321.81;5013342;28;20041;-34
2022/02/17 01:36:40;;;;;;;0.13;0.13;;;;;;;26.40;30.44;95320.16;5014610;28;20084;-38
2022/02/17 01:39:06;;;;;;;1.25;0.20;;;;;;;26.41;30.45;95316.56;4997181;28;20602;-34
2022/02/17 01:41:31;;;;;;;0.10;0.10;;;;;;;26.42;30.31;95312.13;5014869;28;20100;-35
2022/02/17 01:44:02;;;;;;;0.20;0.20;;;;;;;26.40;30.47;95314.91;5015382;28;20044;-31
2022/02/17 01:46:32;;;;;;;0.98;0.20;;;;;;;26.39;30.37;95323.72;5011882;28;20551;-31
2022/02/17 01:48:57;;;;;;;1.45;1.02;;;;;;;26.40;30.46;95346.41;5005276;28;20120;-30
2022/02/17 01:51:23;;;;;;;0.93;0.30;;;;;;;26.40;30.42;95345.56;5006797;28;20018;-30
2022/02/17 01:53:48;;;;;;;0.73;0.20;;;;;;;26.40;30.44;95340.31;5005990;28;20122;-31
2022/02/17 01:56:14;;;;;;;1.35;0.20;;;;;;;26.39;30.44;95334.22;5001945;28;20037;-28
2022/02/17 01:58:39;;;;;;;0.38;0.20;;;;;;;26.40;30.36;95324.56;4988692;28;20041;-31
2022/02/17 02:01:05;;;;;;;0.73;0.30;;;;;;;26.38;30.57;95337.81;5006729;28;20028;-30
2022/02/17 02:03:30;;;;;;;0.70;0.20;;;;;;;26.38;30.39;95337.81;5006877;28;20589;-32
2022/02/17 02:05:57;;;;;;;0.30;0.20;;;;;;;26.39;30.35;95322.88;5006196;28;20057;-34
2022/02/17 02:08:22;;;;;;;0.52;0.20;;;;;;;26.39;30.49;95328.16;5003872;28;20032;-33
2022/02/17 02:10:48;;;;;;;0.10;0.10;;;;;;;26.39;30.31;95328.97;4989125;28;20039;-38
2022/02/17 02:13:14;;;;;;;1.65;0.10;;;;;;;26.38;30.29;95326.47;5008273;28;20029;-35
2022/02/17 02:15:52;;;;;;;0.70;0.20;;;;;;;26.37;30.35;95328.25;5004334;28;20127;-34
2022/02/17 02:18:17;;;;;;;1.65;0.10;;;;;;;26.38;30.42;95326.47;5002170;28;20029;-33
2022/02/17 02:20:53;;;;;;;0.10;0.10;;;;;;;26.38;30.51;95331.72;5006137;28;20102;-33
2022/02/17 02:23:18;;;;;;;0.43;0.22;;;;;;;26.38;30.39;95337.00;5006251;28;20115;-30
2022/02/17 02:25:48;;;;;;;0.32;0.10;;;;;;;26.38;30.29;95350.13;5004496;28;20640;-30
2022/02/17 02:28:17;;;;;;;0.82;0.20;;;;;;;26.37;30.47;95337.91;5006024;28;20084;-31
2022/02/17 02:30:43;;;;;;;0.32;0.30;;;;;;;26.36;30.50;95344.97;5004967;28;20056;-31
2022/02/17 02:33:09;;;;;;;1.85;0.13;;;;;;;26.37;30.40;95356.31;5007018;28;20550;-33
2022/02/17 02:35:34;;;;;;;0.28;0.20;;;;;;;26.37;30.40;95361.56;5006873;28;20029;-29
2022/02/17 02:37:59;;;;;;;0.43;0.20;;;;;;;26.37;30.50;95361.56;5005580;28;20029;-31
2022/02/17 02:40:25;;;;;;;0.20;0.10;;;;;;;26.37;30.40;95351.06;5006237;28;20029;-32
2022/02/17 02:42:50;;;;;;;2.10;0.30;;;;;;;26.35;30.36;95353.78;5005791;28;20095;-30
2022/02/17 02:45:15;;;;;;;6.45;0.32;;;;;;;26.35;30.50;95357.25;5006642;28;20029;-33
2022/02/17 02:47:41;;;;;;;0.98;0.20;;;;;;;26.35;30.61;95349.38;5006034;28;20025;-35
2022/02/17 02:50:06;;;;;;;5.53;0.25;;;;;;;26.35;30.53;95338.88;5007940;28;20087;-30
2022/02/17 02:52:32;;;;;;;0.10;0.10;;;;;;;26.34;30.60;95323.25;5002871;28;20061;-32
2022/02/17 02:54:57;;;;;;;0.65;0.13;;;;;;;26.34;30.60;95321.47;5004712;28;20029;-32
2022/02/17 02:57:25;;;;;;;0.90;0.20;;;;;;;26.35;30.60;95312.63;5004519;28;20029;-34
2022/02/17 02:59:50;;;;;;;0.20;0.10;;;;;;;26.33;30.48;95314.53;5005479;28;20848;-31
2022/02/17 03:02:16;;;;;;;0.20;0.20;;;;;;;26.33;30.53;95314.53;5008468;28;20026;-30
2022/02/17 03:04:41;;;;;;;1.58;0.20;;;;;;;26.33;30.44;95319.81;5007911;28;20044;-31
2022/02/17 03:07:07;;;;;;;0.13;0.13;;;;;;;26.33;30.43;95314.53;5005582;28;20055;-28
2022/02/17 03:09:32;;;;;;;0.95;0.20;;;;;;;26.33;30.49;95314.53;5004793;28;20037;-30
2022/02/17 03:11:58;;;;;;;3.08;0.30;;;;;;;26.33;30.35;95306.66;5006004;28;20219;-31
2022/02/17 03:14:23;;;;;;;0.17;0.17;;;;;;;26.32;30.50;95304.97;5005011;28;20495;-30
2022/02/17 03:16:49;;;;;;;1.85;0.10;;;;;;;26.34;30.49;95315.38;5002124;28;20541;-35
2022/02/17 03:19:14;;;;;;;0.70;0.13;;;;;;;26.31;30.54;95324.31;5006810;28;20030;-34
2022/02/17 03:21:40;;;;;;;0.20;0.10;;;;;;;26.33;30.53;95324.22;5005742;28;20570;-34
2022/02/17 03:24:06;;;;;;;1.65;0.22;;;;;;;26.31;30.41;95316.44;5007457;28;20029;-32
2022/02/17 03:26:31;;;;;;;0.10;0.10;;;;;;;26.33;30.48;95317.16;5004711;28;20360;-29
2022/02/17 03:28:56;;;;;;;0.20;0.10;;;;;;;26.32;30.52;95317.28;5003558;28;20039;-30
2022/02/17 03:31:22;;;;;;;0.10;0.10;;;;;;;26.31;30.49;95311.19;5011150;28;20868;-30
2022/02/17 03:33:47;;;;;;;0.10;0.10;;;;;;;26.32;30.66;95312.03;5008046;28;20037;-29
2022/02/17 03:36:13;;;;;;;0.10;0.10;;;;;;;26.31;30.53;95311.19;5016055;28;20029;-30
2022/02/17 03:38:38;;;;;;;0.30;0.20;;;;;;;26.32;30.54;95298.91;5002680;28;20419;-31
2022/02/17 03:41:03;;;;;;;0.32;0.13;;;;;;;26.32;30.51;95323.34;5005135;28;20029;-34
2022/02/17 03:43:29;;;;;;;0.40;0.10;;;;;;;26.33;30.57;95325.06;5005769;28;20627;-30
2022/02/17 03:45:54;;;;;;;1.65;0.20;;;;;;;26.32;30.43;95328.59;5002765;28;20049;-32
2022/02/17 03:48:19;;;;;;;0.55;0.20;;;;;;;26.32;30.36;95314.66;5005998;28;20029;-34
2022/02/17 03:50:45;;;;;;;0.20;0.10;;;;;;;26.31;30.49;95313.00;5005297;28;20087;-33
2022/02/17 03:53:10;;;;;;;0.95;0.10;;;;;;;26.30;30.38;95317.41;5002963;28;20476;-31
2022/02/17 03:55:36;;;;;;;0.10;0.10;;;;;;;26.32;30.56;95317.28;5006367;28;20224;-29
2022/02/17 03:58:01;;;;;;;0.30;0.10;;;;;;;26.33;30.50;95314.53;5005311;28;20040;-30
2022/02/17 04:00:27;;;;;;;0.10;0.10;;;;;;;26.30;30.23;95299.03;5006414;28;20041;-32
2022/02/17 04:02:52;;;;;;;0.20;0.10;;;;;;;26.32;30.48;95302.34;5003865;28;20537;-35
2022/02/17 04:05:18;;;;;;;0.73;0.20;;;;;;;26.31;30.40;95311.19;5004664;28;20032;-31
2022/02/17 04:07:43;;;;;;;1.90;0.15;;;;;;;26.31;30.38;95326.94;5002876;28;20041;-33
2022/02/17 04:10:09;;;;;;;0.68;0.20;;;;;;;26.31;30.53;95324.31;5004221;28;20052;-31
2022/02/17 04:12:34;;;;;;;0.43;0.10;;;;;;;26.31;30.51;95311.19;5003606;28;20030;-34
2022/02/17 04:15:00;;;;;;;0.52;0.10;;;;;;;26.31;30.41;95320.88;5003962;28;20026;-33
2022/02/17 04:17:25;;;;;;;0.05;0.00;;;;;;;26.31;30.41;95326.13;4988387;28;20034;-34
2022/02/17 04:19:52;;;;;;;0.22;0.22;;;;;;;26.30;30.48;95333.16;5003795;28;20484;-29
2022/02/17 04:22:18;;;;;;;1.25;0.30;;;;;;;26.30;30.44;95330.53;5005300;28;20056;-31
2022/02/17 04:24:43;;;;;;;1.33;0.28;;;;;;;26.30;30.45;95341.03;4989276;28;20546;-32
2022/02/17 04:27:09;;;;;;;0.17;0.10;;;;;;;26.31;30.44;95353.22;5003953;28;20597;-34
2022/02/17 04:29:34;;;;;;;0.20;0.10;;;;;;;26.30;30.49;95335.78;5004742;28;20040;-30
2022/02/17 04:32:00;;;;;;;0.60;0.10;;;;;;;26.30;30.43;95341.03;5003989;28;20031;-31
2022/02/17 04:34:25;;;;;;;0.43;0.10;;;;;;;26.31;30.48;95344.50;5003801;28;20030;-30
2022/02/17 04:36:51;;;;;;;1.45;0.20;;;;;;;26.31;30.38;95347.13;5003593;28;20061;-31
2022/02/17 04:39:16;;;;;;;0.05;0.05;;;;;;;26.31;30.40;95350.59;5004271;28;20288;-30
2022/02/17 04:44:26;;;;;;;0.10;0.00;;;;;;;26.31;30.38;95357.66;5003070;28;20044;-31
2022/02/17 04:46:51;;;;;;;0.10;0.10;;;;;;;26.30;30.52;95372.56;5004764;28;20025;-32
2022/02/17 04:49:17;;;;;;;0.38;0.10;;;;;;;26.30;30.45;95351.53;5004165;28;20037;-30
2022/02/17 04:51:42;;;;;;;0.03;0.00;;;;;;;26.30;30.49;95366.44;5003151;28;20441;-31
2022/02/17 04:54:08;;;;;;;0.20;0.10;;;;;;;26.30;30.40;95350.69;5003308;28;20061;-30
2022/02/17 04:56:33;;;;;;;0.10;0.10;;;;;;;26.30;30.35;95348.06;5002257;28;20021;-29
2022/02/17 04:58:59;;;;;;;0.52;0.10;;;;;;;26.29;30.44;95364.78;5003475;28;20026;-32
2022/02/17 05:01:24;;;;;;;0.15;0.10;;;;;;;26.30;30.38;95372.56;5003463;28;20038;-28
2022/02/17 05:03:49;;;;;;;0.10;0.10;;;;;;;26.29;30.49;95397.16;5005434;28;20540;-34
2022/02/17 05:06:15;;;;;;;0.05;0.00;;;;;;;26.29;30.33;95391.91;5010107;28;20037;-28
2022/02/17 05:08:40;;;;;;;1.65;0.03;;;;;;;26.29;30.43;95406.81;5013609;28;20037;-31
2022/02/17 05:11:06;;;;;;;0.15;0.10;;;;;;;26.29;30.44;95381.38;5012492;28;20646;-33
2022/02/17 05:13:32;;;;;;;0.20;0.10;;;;;;;26.29;30.45;95383.16;5012220;28;20040;-34
2022/02/17 05:15:57;;;;;;;0.40;0.20;;;;;;;26.30;30.43;95403.22;5011717;28;20037;-30
2022/02/17 05:18:22;;;;;;;0.82;0.10;;;;;;;26.29;30.31;95396.31;5014284;28;20082;-31
2022/02/17 05:20:48;;;;;;;0.15;0.05;;;;;;;26.30;30.45;95411.09;5010553;28;20083;-34
2022/02/17 05:23:13;;;;;;;0.00;0.00;;;;;;;26.28;30.42;95432.22;5012911;28;20586;-31
2022/02/17 05:25:39;;;;;;;0.20;0.20;;;;;;;26.29;30.55;95436.53;5010073;28;21432;-32
2022/02/17 05:28:05;;;;;;;2.05;0.30;;;;;;;26.27;30.42;95430.56;5010118;28;20026;-30
2022/02/17 05:30:40;;;;;;;0.10;0.10;;;;;;;26.29;30.40;95440.94;5012816;28;20079;-32
2022/02/17 05:33:15;;;;;;;0.32;0.10;;;;;;;26.29;30.33;95449.66;5011158;28;20079;-28
2022/02/17 05:35:40;;;;;;;0.25;0.10;;;;;;;26.30;30.46;95447.88;5001915;28;20163;-31
2022/02/17 05:38:06;;;;;;;0.10;0.10;;;;;;;26.29;30.49;95449.66;5005525;28;20025;-33
2022/02/17 05:40:31;;;;;;;5.70;0.30;;;;;;;26.29;30.49;95436.53;5004749;28;20037;-31
2022/02/17 05:42:57;;;;;;;0.10;0.00;;;;;;;26.28;30.54;95442.72;4985727;28;20033;-30
2022/02/17 05:45:22;;;;;;;1.20;0.20;;;;;;;26.30;30.35;95450.50;5006730;28;20609;-32
2022/02/17 05:47:47;;;;;;;1.20;0.20;;;;;;;26.29;30.49;95454.91;5005957;28;20474;-30
2022/02/17 05:50:13;;;;;;;0.32;0.20;;;;;;;26.30;30.38;95445.25;5006779;28;20590;-33
2022/02/17 05:52:38;;;;;;;0.45;0.20;;;;;;;26.29;30.41;95449.66;5005730;28;20029;-30
2022/02/17 05:55:04;;;;;;;0.22;0.20;;;;;;;26.29;30.37;95460.19;5009031;28;20025;-29
2022/02/17 05:57:30;;;;;;;0.10;0.10;;;;;;;26.28;30.34;95474.22;5011637;28;20467;-29
2022/02/17 05:59:55;;;;;;;1.00;0.10;;;;;;;26.29;30.51;95470.69;5014419;28;20034;-30
2022/02/17 06:02:20;;;;;;;0.45;0.10;;;;;;;26.30;30.43;95484.63;5014064;28;20365;-30
2022/02/17 06:04:47;;;;;;;0.47;0.10;;;;;;;26.30;30.44;95474.13;5016188;28;20034;-30
2022/02/17 06:07:13;;;;;;;1.48;0.10;;;;;;;26.29;30.51;95489.06;5010505;28;20108;-33
2022/02/17 06:09:40;;;;;;;0.55;0.20;;;;;;;26.29;30.34;95499.56;5014770;28;20662;-30
2022/02/17 06:12:05;;;;;;;1.55;0.10;;;;;;;26.28;30.53;95516.25;5014395;28;20021;-36
2022/02/17 06:14:31;;;;;;;0.45;0.10;;;;;;;26.28;30.44;95529.38;5015144;28;20120;-34
2022/02/17 06:16:56;;;;;;;0.20;0.10;;;;;;;26.29;30.29;95514.47;5013237;28;20158;-31
2022/02/17 06:19:22;;;;;;;0.10;0.10;;;;;;;26.28;30.48;95546.94;5008035;28;20047;-31
2022/02/17 06:21:47;;;;;;;0.38;0.20;;;;;;;26.27;30.47;95551.34;5014276;28;20441;-32
2022/02/17 06:24:12;;;;;;;0.52;0.17;;;;;;;26.27;30.42;95559.22;5013161;28;20876;-30
2022/02/17 06:26:38;;;;;;;0.75;0.22;;;;;;;26.27;30.45;95551.34;5011070;28;20025;-32
2022/02/17 06:29:03;;;;;;;1.50;0.40;;;;;;;26.27;30.40;95563.66;5012796;28;20026;-31
2022/02/17 06:31:29;;;;;;;0.32;0.10;;;;;;;26.27;30.40;95551.34;5013442;28;20033;-31
2022/02/17 06:33:54;;;;;;;0.57;0.30;;;;;;;26.27;30.56;95553.16;5012424;28;20590;-31
2022/02/17 06:36:20;;;;;;;2.90;0.40;;;;;;;26.27;30.40;95567.09;5011697;28;20029;-31
2022/02/17 06:38:45;;;;;;;2.05;0.30;;;;;;;26.26;30.53;95583.81;5013912;28;20092;-31
2022/02/17 06:41:11;;;;;;;3.78;0.50;;;;;;;26.26;30.54;95590.84;5010845;28;20040;-32
2022/02/17 06:43:36;;;;;;;4.20;0.50;;;;;;;26.26;30.48;95601.34;4992142;28;20040;-30
2022/02/17 06:46:03;;;;;;;2.40;0.22;;;;;;;26.26;30.56;95602.22;5011647;28;20037;-33
2022/02/17 06:48:28;;;;;;;4.60;0.47;;;;;;;26.26;30.50;95612.72;5012994;28;20032;-32
2022/02/17 06:50:53;;;;;;;1.92;0.40;;;;;;;26.25;30.39;95620.66;5012041;28;20033;-31
2022/02/17 06:53:19;;;;;;;3.92;0.60;;;;;;;26.25;30.41;95613.63;5011461;28;20392;-30
2022/02/17 06:55:45;;;;;;;1.52;0.40;;;;;;;26.25;30.49;95629.41;5008849;28;20118;-31
2022/02/17 06:58:10;;;;;;;1.05;0.30;;;;;;;26.24;30.46;95609.34;5013165;28;20044;-31
2022/02/17 07:00:36;;;;;;;1.63;0.40;;;;;;;26.26;30.65;95620.59;5012655;28;20034;-31
2022/02/17 07:03:04;;;;;;;0.52;0.17;;;;;;;26.25;30.36;95632.03;5013086;28;20088;-33
2022/02/17 07:05:29;;;;;;;1.80;0.50;;;;;;;26.24;30.38;95651.34;5013385;28;20029;-32
2022/02/17 07:07:55;;;;;;;1.77;0.40;;;;;;;26.25;30.43;95658.28;5008527;28;20052;-31
2022/02/17 07:13:06;;;;;;;0.93;0.50;;;;;;;26.25;30.47;95646.94;5010335;28;20036;-33
2022/02/17 07:15:35;;;;;;;2.03;0.40;;;;;;;26.24;30.29;95651.34;5008889;28;22944;-31
2022/02/17 07:18:07;;;;;;;2.17;0.40;;;;;;;26.23;30.43;95647.88;5007617;28;20033;-30
2022/02/17 07:20:32;;;;;;;;;;;;;;;26.24;30.33;95635.59;5014290;28;20539;-30
2022/02/17 07:22:58;;;;;;;6.75;0.70;;;;;;;26.24;30.41;95635.59;5014810;28;19932;-30
2022/02/17 07:25:24;;;;;;;2.75;0.32;;;;;;;26.23;30.37;95639.16;5003959;28;20036;-30
2022/02/17 07:27:49;;;;;;;3.42;0.63;;;;;;;26.21;30.29;95651.56;5006531;28;20450;-32
2022/02/17 07:30:15;;;;;;;14.90;1.15;;;;;;;26.20;30.43;95650.72;5008250;28;20202;-30
2022/02/17 07:32:40;;;;;;;2.92;0.85;;;;;;;26.22;30.35;95648.84;5008468;28;20623;-30
2022/02/17 07:35:06;;;;;;;6.03;0.98;;;;;;;26.22;30.29;95650.63;5010663;28;20673;-32
2022/02/17 07:37:31;;;;;;;4.45;1.27;;;;;;;26.21;30.28;95660.28;5007612;28;20128;-31
2022/02/17 07:39:57;;;;;;;6.18;1.80;;;;;;;26.22;30.31;95659.34;4992563;28;20060;-27
2022/02/17 07:42:22;;;;;;;3.78;1.00;;;;;;;26.23;30.23;95660.16;5004665;28;20030;-33
2022/02/17 07:44:48;;;;;;;9.40;1.75;;;;;;;26.23;30.24;95670.66;5006132;28;20034;-32
2022/02/17 07:47:13;;;;;;;8.57;1.67;;;;;;;26.24;30.12;95675.00;5002523;28;20033;-30
2022/02/17 07:49:39;;;;;;;11.30;2.20;;;;;;;26.24;29.93;95688.13;5003355;28;20040;-32
2022/02/17 07:52:04;;;;;;;3.72;1.60;;;;;;;26.24;29.88;95667.13;5001363;28;20080;-31
2022/02/17 07:54:30;;;;;;;11.20;1.83;;;;;;;26.24;29.97;95688.13;5004311;28;20034;-31
2022/02/17 07:56:55;;;;;;;3.70;1.60;;;;;;;26.26;30.09;95690.66;5005803;28;20140;-32
2022/02/17 07:59:21;;;;;;;5.82;2.00;;;;;;;26.26;30.09;95695.91;5004163;28;20029;-31
2022/02/17 08:01:46;;;;;;;6.10;1.98;;;;;;;26.27;30.07;95711.53;5004375;28;20048;-30
2022/02/17 08:04:12;;;;;;;5.72;1.90;;;;;;;26.27;30.15;95708.91;5002050;28;20029;-33
2022/02/17 08:06:38;;;;;;;7.10;2.05;;;;;;;26.29;29.88;95696.53;5002799;28;20030;-30
2022/02/17 08:09:04;;;;;;;5.70;2.33;;;;;;;26.29;30.08;95696.53;5002728;28;20059;-30
2022/02/17 08:11:29;;;;;;;4.50;1.83;;;;;;;26.30;30.17;95713.97;5001434;28;21132;-31
2022/02/17 08:13:55;;;;;;;6.07;1.80;;;;;;;26.32;30.10;95725.19;5000534;28;20029;-31
2022/02/17 08:16:23;;;;;;;5.03;1.73;;;;;;;26.34;30.22;95746.09;5002356;28;20036;-31
2022/02/17 08:18:48;;;;;;;8.05;2.10;;;;;;;26.34;30.15;95736.44;4999931;28;20025;-32
2022/02/17 08:21:14;;;;;;;8.30;2.22;;;;;;;26.37;30.16;95766.03;5001839;28;20572;-31
2022/02/17 08:23:39;;;;;;;7.72;2.45;;;;;;;26.37;30.07;95753.75;5000056;28;20091;-30
2022/02/17 08:26:05;;;;;;;7.57;2.33;;;;;;;26.35;29.81;95748.59;5004628;28;20542;-31
2022/02/17 08:28:30;;;;;;;7.80;2.67;;;;;;;26.38;29.82;95750.16;5004391;28;20033;-32
2022/02/17 08:30:55;;;;;;;11.00;2.88;;;;;;;26.39;29.99;95757.09;5005694;28;20025;-31
2022/02/17 08:33:21;;;;;;;9.32;3.10;;;;;;;26.40;29.87;95756.16;5002773;28;20056;-32
2022/02/17 08:35:46;;;;;;;12.45;3.53;;;;;;;26.40;29.91;95756.16;5002567;28;20036;-33
2022/02/17 08:38:12;;;;;;;10.00;2.90;;;;;;;26.41;29.97;95767.50;4985803;28;20080;-33
2022/02/17 08:40:37;;;;;;;14.80;3.88;;;;;;;26.44;29.94;95790.94;5003658;28;20034;-30
2022/02/17 08:43:09;;;;;;;16.92;3.78;;;;;;;26.44;29.95;95807.53;5004523;28;20052;-31
2022/02/17 08:45:39;;;;;;;15.38;4.00;;;;;;;26.44;29.85;95791.78;4987785;28;20041;-29
2022/02/17 08:48:05;;;;;;;17.85;4.35;;;;;;;26.45;29.89;95784.72;5003287;28;20033;-34
2022/02/17 08:50:31;;;;;;;14.15;3.90;;;;;;;26.46;29.94;95787.25;5003639;28;20044;-34
2022/02/17 08:52:56;;;;;;;11.60;3.85;;;;;;;26.47;29.78;95775.78;5001014;28;20022;-31
2022/02/17 08:55:21;;;;;;;16.45;3.88;;;;;;;26.49;29.92;95791.44;5004645;28;20277;-29
2022/02/17 08:57:48;;;;;;;12.75;3.58;;;;;;;26.50;29.83;95797.53;5004140;28;20491;-33
2022/02/17 09:00:14;;;;;;;15.13;4.32;;;;;;;26.51;29.81;95805.31;5010639;28;20047;-31
2022/02/17 09:02:40;;;;;;;12.02;4.05;;;;;;;26.51;29.79;95809.72;5008819;28;20091;-33
2022/02/17 09:05:06;;;;;;;12.38;4.03;;;;;;;26.52;29.71;95804.34;5011151;28;20310;-26
2022/02/17 09:07:31;;;;;;;12.93;4.00;;;;;;;26.52;29.83;95817.50;4998867;28;20038;-31
2022/02/17 09:09:57;;;;;;;9.02;3.20;;;;;;;26.55;29.91;95798.03;5008089;28;20040;-29
2022/02/17 09:12:22;;;;;;;14.85;3.72;;;;;;;26.53;29.91;95821.78;5012475;28;20029;-30
2022/02/17 09:14:47;;;;;;;16.50;3.70;;;;;;;26.55;29.99;95816.44;5011046;28;20424;-29
2022/02/17 09:17:13;;;;;;;12.35;3.58;;;;;;;26.55;29.81;95825.13;5011411;28;20025;-31
2022/02/17 09:19:38;;;;;;;14.88;4.03;;;;;;;26.55;29.98;95835.63;4997223;28;20033;-34
2022/02/17 09:22:04;;;;;;;14.82;3.65;;;;;;;26.56;30.02;95837.34;5013262;28;20055;-31
2022/02/17 09:24:29;;;;;;;8.82;3.40;;;;;;;26.57;29.92;95839.00;5016417;28;20033;-30
2022/02/17 09:26:54;;;;;;;11.38;3.33;;;;;;;26.57;29.86;95857.41;5012278;28;20111;-30
2022/02/17 09:29:20;;;;;;;9.73;3.22;;;;;;;26.57;29.82;95857.41;5010163;28;20025;-33
2022/02/17 09:31:45;;;;;;;11.18;3.13;;;;;;;26.58;29.83;95864.34;5009772;28;20824;-29
2022/02/17 09:34:12;;;;;;;9.65;3.33;;;;;;;26.58;29.86;95872.22;5012946;28;20079;-29
2022/02/17 09:36:38;;;;;;;11.20;3.42;;;;;;;26.58;29.85;95880.09;5007263;28;20111;-32
2022/02/17 09:39:03;;;;;;;8.10;2.80;;;;;;;26.59;29.78;95887.03;5008229;28;20100;-34
2022/02/17 09:41:28;;;;;;;7.15;2.92;;;;;;;26.60;29.88;95903.66;4999379;28;20034;-29
2022/02/17 09:43:55;;;;;;;8.65;3.00;;;;;;;26.60;29.90;95898.38;5003192;28;20041;-31
2022/02/17 09:46:21;;;;;;;14.30;3.30;;;;;;;26.60;29.89;95909.75;4987344;28;20130;-32
2022/02/17 09:49:01;;;;;;;9.52;3.20;;;;;;;26.61;29.73;95918.44;5006092;28;20554;-35
2022/02/17 09:51:27;;;;;;;8.88;3.30;;;;;;;26.59;29.81;95915.94;5011144;28;20197;-34
2022/02/17 09:53:52;;;;;;;8.18;2.63;;;;;;;26.63;29.89;95923.59;5010788;28;20091;-32
2022/02/17 09:56:19;;;;;;;11.68;3.25;;;;;;;26.62;29.98;95914.91;5005465;28;20149;-31
2022/02/17 09:58:44;;;;;;;7.93;2.92;;;;;;;26.63;29.77;95913.09;5009496;28;20094;-36
2022/02/17 10:01:17;;;;;;;10.52;3.50;;;;;;;26.60;29.81;95904.50;5005268;28;20491;-36
2022/02/17 10:03:42;;;;;;;11.52;3.10;;;;;;;26.63;29.73;95907.84;5001463;28;20026;-30
2022/02/17 10:06:09;;;;;;;8.63;2.60;;;;;;;26.64;29.87;95914.78;5006558;28;20214;-32
2022/02/17 10:08:35;;;;;;;8.77;3.10;;;;;;;26.64;29.87;95909.50;5008377;28;20037;-31
2022/02/17 10:11:01;;;;;;;9.25;2.55;;;;;;;26.65;29.86;95913.84;4989116;28;20033;-30
2022/02/17 10:13:26;;;;;;;9.80;3.03;;;;;;;26.66;29.82;95918.16;4996186;28;20596;-35
2022/02/17 10:15:53;;;;;;;10.13;3.22;;;;;;;26.64;29.83;95904.25;5007807;28;20953;-31
2022/02/17 10:18:21;;;;;;;6.40;2.63;;;;;;;26.67;29.77;95925.06;5008529;28;20710;-35
2022/02/17 10:21:15;;;;;;;9.07;2.78;;;;;;;26.67;29.71;95946.09;5008472;28;20037;-32
2022/02/17 10:23:46;;;;;;;5.72;2.38;;;;;;;26.65;29.89;95934.88;5002556;28;21669;-29
2022/02/17 10:26:15;;;;;;;11.30;3.22;;;;;;;26.69;29.80;95933.72;5004984;28;20048;-31
2022/02/17 10:28:42;;;;;;;7.93;2.78;;;;;;;26.68;29.80;95937.25;5005449;28;20881;-31
2022/02/17 10:31:20;;;;;;;6.53;2.85;;;;;;;26.69;29.81;95941.59;5002808;28;21005;-32
2022/02/17 10:33:46;;;;;;;6.85;2.65;;;;;;;26.69;29.84;95947.66;5004767;28;22050;-31
2022/02/17 10:36:12;;;;;;;5.47;2.47;;;;;;;26.69;29.66;95949.47;5006930;28;20034;-31
2022/02/17 10:38:38;;;;;;;6.22;2.80;;;;;;;26.69;29.88;95931.06;5004984;28;20120;-31
2022/02/17 10:41:04;;;;;;;4.07;2.13;;;;;;;26.68;29.70;95943.38;5005138;28;20980;-31
2022/02/17 10:43:30;;;;;;;7.22;2.80;;;;;;;26.69;29.84;95947.66;5005646;28;20033;-31
2022/02/17 10:45:55;;;;;;;7.82;2.72;;;;;;;26.70;29.80;95945.88;5006978;28;20033;-31
2022/02/17 10:48:21;;;;;;;6.10;2.38;;;;;;;26.71;29.79;95947.56;4989956;28;20025;-32
2022/02/17 10:50:49;;;;;;;7.03;2.47;;;;;;;26.70;29.79;95946.72;5003980;28;20097;-32
2022/02/17 10:53:22;;;;;;;7.60;2.63;;;;;;;26.70;29.71;95951.16;5005767;28;22509;-32
2022/02/17 10:55:57;;;;;;;9.52;2.78;;;;;;;26.71;29.68;95958.06;5007125;28;21199;-32
2022/02/17 10:58:27;;;;;;;6.88;2.22;;;;;;;26.71;29.73;95960.69;5009121;28;20114;-35
2022/02/17 11:01:00;;;;;;;4.95;2.25;;;;;;;26.71;29.76;95958.06;5009605;28;20040;-33
2022/02/17 11:03:26;;;;;;;7.05;2.58;;;;;;;26.72;29.70;95965.00;5003570;28;20035;-30
2022/02/17 11:05:51;;;;;;;6.90;2.38;;;;;;;26.71;29.74;95965.97;5005051;28;20116;-31
2022/02/17 11:08:17;;;;;;;3.97;2.08;;;;;;;26.71;29.70;95968.59;4989077;28;20033;-32
2022/02/17 11:10:43;;;;;;;8.30;2.40;;;;;;;26.72;29.79;95980.78;4992155;28;20038;-31
2022/02/17 11:13:11;;;;;;;5.80;2.53;;;;;;;26.71;29.83;95958.06;5004159;28;20072;-34
2022/02/17 11:15:39;;;;;;;5.65;2.25;;;;;;;26.73;29.75;95966.69;4994938;28;20831;-40
2022/02/17 11:18:04;;;;;;;5.53;2.15;;;;;;;26.73;29.77;95974.56;5013069;28;20643;-31
2022/02/17 11:20:30;;;;;;;5.28;2.20;;;;;;;26.73;29.82;95971.94;5012355;28;20033;-31
2022/02/17 11:22:55;;;;;;;7.60;2.08;;;;;;;26.72;29.82;95979.00;4996351;28;20450;-34
2022/02/17 11:25:40;;;;;;;10.00;2.33;;;;;;;26.73;29.75;95983.31;4999161;28;20034;-31
2022/02/17 11:28:07;;;;;;;8.13;2.20;;;;;;;26.72;29.79;95962.38;5008471;28;20104;-31
2022/02/17 11:30:33;;;;;;;9.05;1.98;;;;;;;26.73;29.68;95979.81;5012542;28;20033;-33
2022/02/17 11:33:30;;;;;;;5.38;2.08;;;;;;;26.73;29.89;95992.97;5013051;28;20619;-33